sensor_id;sensor_type;location;lat;lon;timestamp;pressure;altitude;pressure_sealevel;temperature;humidity
3598;BME280;1813;52.016;8.714;2022-08-19T00:01:44;-16261.94;;;-139.71;69.29
3598;BME280;1813;52.016;8.714;2022-08-19T00:04:18;-16261.94;;;-139.71;69.32
3598;BME280;1813;52.016;8.714;2022-08-19T00:06:51;-16261.94;;;-139.71;69.34
3598;BME280;1813;52.016;8.714;2022-08-19T00:09:25;-16261.94;;;-139.71;69.52
3598;BME280;1813;52.016;8.714;2022-08-19T00:11:57;-16261.94;;;-139.71;69.39
3598;BME280;1813;52.016;8.714;2022-08-19T00:14:30;-16261.94;;;-139.71;69.39
3598;BME280;1813;52.016;8.714;2022-08-19T00:17:03;-16261.94;;;-139.71;69.32
3598;BME280;1813;52.016;8.714;2022-08-19T00:19:36;-16261.94;;;-139.71;69.22
3598;BME280;1813;52.016;8.714;2022-08-19T00:22:07;-16261.94;;;-139.71;69.12
3598;BME280;1813;52.016;8.714;2022-08-19T00:24:41;-16261.94;;;-139.71;69.17
3598;BME280;1813;52.016;8.714;2022-08-19T00:27:14;-16261.94;;;-139.71;69.27
3598;BME280;1813;52.016;8.714;2022-08-19T00:29:46;-16261.94;;;-139.71;69.25
3598;BME280;1813;52.016;8.714;2022-08-19T00:32:18;-16261.94;;;-139.71;69.31
3598;BME280;1813;52.016;8.714;2022-08-19T00:34:50;-16261.94;;;-139.71;69.31
3598;BME280;1813;52.016;8.714;2022-08-19T00:37:24;-16261.94;;;-139.71;69.40
3598;BME280;1813;52.016;8.714;2022-08-19T00:39:58;-16261.94;;;-139.71;69.42
3598;BME280;1813;52.016;8.714;2022-08-19T00:42:30;-16261.94;;;-139.71;69.54
3598;BME280;1813;52.016;8.714;2022-08-19T00:45:03;-16261.94;;;-139.71;69.60
3598;BME280;1813;52.016;8.714;2022-08-19T00:47:40;-16261.94;;;-139.71;69.76
3598;BME280;1813;52.016;8.714;2022-08-19T00:50:14;-16261.94;;;-139.71;69.71
3598;BME280;1813;52.016;8.714;2022-08-19T00:52:49;-16261.94;;;-139.71;69.72
3598;BME280;1813;52.016;8.714;2022-08-19T00:55:25;-16261.94;;;-139.71;69.91
3598;BME280;1813;52.016;8.714;2022-08-19T00:58:02;-16261.94;;;-139.71;70.03
3598;BME280;1813;52.016;8.714;2022-08-19T01:00:36;-16261.94;;;-139.71;70.27
3598;BME280;1813;52.016;8.714;2022-08-19T01:03:10;-16261.94;;;-139.71;70.42
3598;BME280;1813;52.016;8.714;2022-08-19T01:05:43;-16261.94;;;-139.71;70.46
3598;BME280;1813;52.016;8.714;2022-08-19T01:08:17;-16261.94;;;-139.71;70.43
3598;BME280;1813;52.016;8.714;2022-08-19T01:10:54;-16261.94;;;-139.71;70.46
3598;BME280;1813;52.016;8.714;2022-08-19T01:13:29;-16261.94;;;-139.71;70.68
3598;BME280;1813;52.016;8.714;2022-08-19T01:16:05;-16261.94;;;-139.71;70.89
3598;BME280;1813;52.016;8.714;2022-08-19T01:18:41;-16261.94;;;-139.71;70.99
3598;BME280;1813;52.016;8.714;2022-08-19T01:21:18;-16261.94;;;-139.71;71.02
3598;BME280;1813;52.016;8.714;2022-08-19T01:23:54;-16261.94;;;-139.71;71.02
3598;BME280;1813;52.016;8.714;2022-08-19T01:26:26;-16261.94;;;-139.71;70.91
3598;BME280;1813;52.016;8.714;2022-08-19T01:28:59;-16261.94;;;-139.71;71.05
3598;BME280;1813;52.016;8.714;2022-08-19T01:31:31;-16261.94;;;-139.71;71.19
3598;BME280;1813;52.016;8.714;2022-08-19T01:34:03;-16261.94;;;-139.71;71.39
3598;BME280;1813;52.016;8.714;2022-08-19T01:36:38;-16261.94;;;-139.71;71.40
3598;BME280;1813;52.016;8.714;2022-08-19T01:39:17;-16261.94;;;-139.71;71.36
3598;BME280;1813;52.016;8.714;2022-08-19T01:41:49;-16261.94;;;-139.71;71.65
3598;BME280;1813;52.016;8.714;2022-08-19T01:44:22;-16261.94;;;-139.71;71.86
3598;BME280;1813;52.016;8.714;2022-08-19T01:46:55;-16261.94;;;-139.71;72.01
3598;BME280;1813;52.016;8.714;2022-08-19T01:49:27;-16261.94;;;-139.71;72.35
3598;BME280;1813;52.016;8.714;2022-08-19T01:52:00;-16261.94;;;-139.71;72.54
3598;BME280;1813;52.016;8.714;2022-08-19T01:54:33;-16261.94;;;-139.71;72.66
3598;BME280;1813;52.016;8.714;2022-08-19T01:57:09;-16261.94;;;-139.71;72.78
3598;BME280;1813;52.016;8.714;2022-08-19T01:59:43;-16261.94;;;-139.71;72.72
3598;BME280;1813;52.016;8.714;2022-08-19T02:02:16;-16261.94;;;-139.71;72.60
3598;BME280;1813;52.016;8.714;2022-08-19T02:04:48;-16261.94;;;-139.71;72.52
3598;BME280;1813;52.016;8.714;2022-08-19T02:07:20;-16261.94;;;-139.71;72.60
3598;BME280;1813;52.016;8.714;2022-08-19T02:09:54;-16261.94;;;-139.71;72.86
3598;BME280;1813;52.016;8.714;2022-08-19T02:12:26;-16261.94;;;-139.71;72.87
3598;BME280;1813;52.016;8.714;2022-08-19T02:14:58;-16261.94;;;-139.71;73.00
3598;BME280;1813;52.016;8.714;2022-08-19T02:17:31;-16261.94;;;-139.71;72.92
3598;BME280;1813;52.016;8.714;2022-08-19T02:20:04;-16261.94;;;-139.71;72.91
3598;BME280;1813;52.016;8.714;2022-08-19T02:22:36;-16261.94;;;-139.71;72.75
3598;BME280;1813;52.016;8.714;2022-08-19T02:25:13;-16261.94;;;-139.71;72.54
3598;BME280;1813;52.016;8.714;2022-08-19T02:27:45;-16261.94;;;-139.71;73.46
3598;BME280;1813;52.016;8.714;2022-08-19T02:30:17;-16261.94;;;-139.71;74.07
3598;BME280;1813;52.016;8.714;2022-08-19T02:32:49;-16261.94;;;-139.71;73.63
3598;BME280;1813;52.016;8.714;2022-08-19T02:35:21;-16261.94;;;-139.71;73.67
3598;BME280;1813;52.016;8.714;2022-08-19T02:37:53;-16261.94;;;-139.71;73.68
3598;BME280;1813;52.016;8.714;2022-08-19T02:40:49;-16261.94;;;-139.71;73.62
3598;BME280;1813;52.016;8.714;2022-08-19T02:43:23;-16261.94;;;-139.71;73.68
3598;BME280;1813;52.016;8.714;2022-08-19T02:45:56;-16261.94;;;-139.71;73.56
3598;BME280;1813;52.016;8.714;2022-08-19T02:48:28;-16261.94;;;-139.71;73.79
3598;BME280;1813;52.016;8.714;2022-08-19T02:51:00;-16261.94;;;-139.71;73.31
3598;BME280;1813;52.016;8.714;2022-08-19T02:53:32;-16261.94;;;-139.71;73.23
3598;BME280;1813;52.016;8.714;2022-08-19T02:56:07;-16261.94;;;-139.71;73.38
3598;BME280;1813;52.016;8.714;2022-08-19T02:58:39;-16261.94;;;-139.71;73.55
3598;BME280;1813;52.016;8.714;2022-08-19T03:01:19;-16261.94;;;-139.71;72.91
3598;BME280;1813;52.016;8.714;2022-08-19T03:03:52;-16261.94;;;-139.71;73.66
3598;BME280;1813;52.016;8.714;2022-08-19T03:06:24;-16261.94;;;-139.71;74.05
3598;BME280;1813;52.016;8.714;2022-08-19T03:08:56;-16261.94;;;-139.71;74.55
3598;BME280;1813;52.016;8.714;2022-08-19T03:11:31;-16261.94;;;-139.71;75.09
3598;BME280;1813;52.016;8.714;2022-08-19T03:14:05;-16261.94;;;-139.71;75.31
3598;BME280;1813;52.016;8.714;2022-08-19T03:16:42;-16261.94;;;-139.71;75.54
3598;BME280;1813;52.016;8.714;2022-08-19T03:19:16;-16261.94;;;-139.71;76.14
3598;BME280;1813;52.016;8.714;2022-08-19T03:21:49;-16261.94;;;-139.71;76.37
3598;BME280;1813;52.016;8.714;2022-08-19T03:24:21;-16261.94;;;-139.71;76.94
3598;BME280;1813;52.016;8.714;2022-08-19T03:26:55;-16261.94;;;-139.71;77.23
3598;BME280;1813;52.016;8.714;2022-08-19T03:29:29;-16261.94;;;-139.71;77.31
3598;BME280;1813;52.016;8.714;2022-08-19T03:32:04;-16261.94;;;-139.71;77.24
3598;BME280;1813;52.016;8.714;2022-08-19T03:34:36;-16261.94;;;-139.71;77.92
3598;BME280;1813;52.016;8.714;2022-08-19T03:37:10;-16261.94;;;-139.71;78.56
3598;BME280;1813;52.016;8.714;2022-08-19T03:39:43;-16261.94;;;-139.71;79.44
3598;BME280;1813;52.016;8.714;2022-08-19T03:42:16;-16261.94;;;-139.71;80.36
3598;BME280;1813;52.016;8.714;2022-08-19T03:44:48;-16261.94;;;-139.71;80.81
3598;BME280;1813;52.016;8.714;2022-08-19T03:47:20;-16261.94;;;-139.71;81.12
3598;BME280;1813;52.016;8.714;2022-08-19T03:49:52;-16261.94;;;-139.71;80.99
3598;BME280;1813;52.016;8.714;2022-08-19T03:52:23;-16261.94;;;-139.71;80.55
3598;BME280;1813;52.016;8.714;2022-08-19T03:54:55;-16261.94;;;-139.71;80.13
3598;BME280;1813;52.016;8.714;2022-08-19T03:57:29;-16261.94;;;-139.71;79.89
3598;BME280;1813;52.016;8.714;2022-08-19T04:00:00;-16261.94;;;-139.71;79.53
3598;BME280;1813;52.016;8.714;2022-08-19T04:02:35;-16261.94;;;-139.71;79.53
3598;BME280;1813;52.016;8.714;2022-08-19T04:05:07;-16261.94;;;-139.71;79.73
3598;BME280;1813;52.016;8.714;2022-08-19T04:07:40;-16261.94;;;-139.71;80.11
3598;BME280;1813;52.016;8.714;2022-08-19T04:10:12;-16261.94;;;-139.71;80.35
3598;BME280;1813;52.016;8.714;2022-08-19T04:12:45;-16261.94;;;-139.71;80.70
3598;BME280;1813;52.016;8.714;2022-08-19T04:15:17;-16261.94;;;-139.71;80.97
3598;BME280;1813;52.016;8.714;2022-08-19T04:17:49;-16261.94;;;-139.71;81.14
3598;BME280;1813;52.016;8.714;2022-08-19T04:20:21;-16261.94;;;-139.71;81.68
3598;BME280;1813;52.016;8.714;2022-08-19T04:22:53;-16261.94;;;-139.71;81.89
3598;BME280;1813;52.016;8.714;2022-08-19T04:25:24;-16261.94;;;-139.71;81.80
3598;BME280;1813;52.016;8.714;2022-08-19T04:27:58;-16261.94;;;-139.71;81.88
3598;BME280;1813;52.016;8.714;2022-08-19T04:30:29;-16261.94;;;-139.71;82.05
3598;BME280;1813;52.016;8.714;2022-08-19T04:33:01;-16261.94;;;-139.71;81.84
3598;BME280;1813;52.016;8.714;2022-08-19T04:35:36;-16261.94;;;-139.71;81.75
3598;BME280;1813;52.016;8.714;2022-08-19T04:38:08;-16261.94;;;-139.71;81.77
3598;BME280;1813;52.016;8.714;2022-08-19T04:40:41;-16261.94;;;-139.71;81.92
3598;BME280;1813;52.016;8.714;2022-08-19T04:43:33;-16261.94;;;-139.71;81.87
3598;BME280;1813;52.016;8.714;2022-08-19T04:46:06;-16261.94;;;-139.71;82.33
3598;BME280;1813;52.016;8.714;2022-08-19T04:48:39;-16261.94;;;-139.71;82.46
3598;BME280;1813;52.016;8.714;2022-08-19T04:51:11;-16261.94;;;-139.71;82.57
3598;BME280;1813;52.016;8.714;2022-08-19T04:53:44;-16261.94;;;-139.71;82.22
3598;BME280;1813;52.016;8.714;2022-08-19T04:56:17;-16261.94;;;-139.71;81.84
3598;BME280;1813;52.016;8.714;2022-08-19T04:58:53;-16261.94;;;-139.71;81.56
3598;BME280;1813;52.016;8.714;2022-08-19T05:01:27;-16261.94;;;-139.71;80.80
3598;BME280;1813;52.016;8.714;2022-08-19T05:04:00;-16261.94;;;-139.71;80.52
3598;BME280;1813;52.016;8.714;2022-08-19T05:06:35;-16261.94;;;-139.71;80.30
3598;BME280;1813;52.016;8.714;2022-08-19T05:09:07;-16261.94;;;-139.71;80.29
3598;BME280;1813;52.016;8.714;2022-08-19T05:11:39;-16261.94;;;-139.71;80.14
3598;BME280;1813;52.016;8.714;2022-08-19T05:14:12;-16261.94;;;-139.71;80.45
3598;BME280;1813;52.016;8.714;2022-08-19T05:16:44;-16261.94;;;-139.71;80.45
3598;BME280;1813;52.016;8.714;2022-08-19T05:19:16;-16261.94;;;-139.71;80.44
3598;BME280;1813;52.016;8.714;2022-08-19T05:22:05;-16261.94;;;-139.71;80.50
3598;BME280;1813;52.016;8.714;2022-08-19T05:24:54;-16261.94;;;-139.71;80.43
3598;BME280;1813;52.016;8.714;2022-08-19T05:27:26;-16261.94;;;-139.71;80.32
3598;BME280;1813;52.016;8.714;2022-08-19T05:29:59;-16261.94;;;-139.71;80.12
3598;BME280;1813;52.016;8.714;2022-08-19T05:32:32;-16261.94;;;-139.71;79.86
3598;BME280;1813;52.016;8.714;2022-08-19T05:35:04;-16261.94;;;-139.71;79.75
3598;BME280;1813;52.016;8.714;2022-08-19T05:37:36;-16261.94;;;-139.71;79.54
3598;BME280;1813;52.016;8.714;2022-08-19T05:40:10;-16261.94;;;-139.71;79.19
3598;BME280;1813;52.016;8.714;2022-08-19T05:42:42;-16261.94;;;-139.71;78.72
3598;BME280;1813;52.016;8.714;2022-08-19T05:45:16;-16261.94;;;-139.71;78.14
3598;BME280;1813;52.016;8.714;2022-08-19T05:47:47;-16261.94;;;-139.71;77.88
3598;BME280;1813;52.016;8.714;2022-08-19T05:50:20;-16261.94;;;-139.71;77.62
3598;BME280;1813;52.016;8.714;2022-08-19T05:52:52;-16261.94;;;-139.71;77.30
3598;BME280;1813;52.016;8.714;2022-08-19T05:55:23;-16261.94;;;-139.71;77.87
3598;BME280;1813;52.016;8.714;2022-08-19T05:57:55;-16261.94;;;-139.71;77.60
3598;BME280;1813;52.016;8.714;2022-08-19T06:00:28;-16261.94;;;-139.71;78.02
3598;BME280;1813;52.016;8.714;2022-08-19T06:03:01;-16261.94;;;-139.71;77.52
3598;BME280;1813;52.016;8.714;2022-08-19T06:05:33;-16261.94;;;-139.71;77.19
3598;BME280;1813;52.016;8.714;2022-08-19T06:08:05;-16261.94;;;-139.71;76.41
3598;BME280;1813;52.016;8.714;2022-08-19T06:10:37;-16261.94;;;-139.71;75.85
3598;BME280;1813;52.016;8.714;2022-08-19T06:13:09;-16261.94;;;-139.71;75.01
3598;BME280;1813;52.016;8.714;2022-08-19T06:15:42;-16261.94;;;-139.71;74.89
3598;BME280;1813;52.016;8.714;2022-08-19T06:18:16;-16261.94;;;-139.71;74.74
3598;BME280;1813;52.016;8.714;2022-08-19T06:20:48;-16261.94;;;-139.71;74.18
3598;BME280;1813;52.016;8.714;2022-08-19T06:23:20;-16261.94;;;-139.71;72.97
3598;BME280;1813;52.016;8.714;2022-08-19T06:25:52;-16261.94;;;-139.71;71.99
3598;BME280;1813;52.016;8.714;2022-08-19T06:28:24;-16261.94;;;-139.71;71.26
3598;BME280;1813;52.016;8.714;2022-08-19T06:30:57;-16261.94;;;-139.71;71.77
3598;BME280;1813;52.016;8.714;2022-08-19T06:33:28;-16261.94;;;-139.71;71.58
3598;BME280;1813;52.016;8.714;2022-08-19T06:36:00;-16261.94;;;-139.71;71.48
3598;BME280;1813;52.016;8.714;2022-08-19T06:38:32;-16261.94;;;-139.71;71.12
3598;BME280;1813;52.016;8.714;2022-08-19T06:41:05;-16261.94;;;-139.71;70.94
3598;BME280;1813;52.016;8.714;2022-08-19T06:43:37;-16261.94;;;-139.71;70.37
3598;BME280;1813;52.016;8.714;2022-08-19T06:46:12;-16261.94;;;-139.71;69.33
3598;BME280;1813;52.016;8.714;2022-08-19T06:48:44;-16261.94;;;-139.71;69.61
3598;BME280;1813;52.016;8.714;2022-08-19T06:51:17;-16261.94;;;-139.71;69.61
3598;BME280;1813;52.016;8.714;2022-08-19T06:53:52;-16261.94;;;-139.71;70.03
3598;BME280;1813;52.016;8.714;2022-08-19T06:56:26;-16261.94;;;-139.71;69.96
3598;BME280;1813;52.016;8.714;2022-08-19T06:59:03;-16261.94;;;-139.71;70.14
3598;BME280;1813;52.016;8.714;2022-08-19T07:01:38;-16261.94;;;-139.71;70.08
3598;BME280;1813;52.016;8.714;2022-08-19T07:04:11;-16261.94;;;-139.71;68.81
3598;BME280;1813;52.016;8.714;2022-08-19T07:06:43;-16261.94;;;-139.71;69.09
3598;BME280;1813;52.016;8.714;2022-08-19T07:09:17;-16261.94;;;-139.71;68.12
3598;BME280;1813;52.016;8.714;2022-08-19T07:11:51;-16261.94;;;-139.71;67.40
3598;BME280;1813;52.016;8.714;2022-08-19T07:14:26;-16261.94;;;-139.71;67.83
3598;BME280;1813;52.016;8.714;2022-08-19T07:16:59;-16261.94;;;-139.71;67.14
3598;BME280;1813;52.016;8.714;2022-08-19T07:19:31;-16261.94;;;-139.71;65.62
3598;BME280;1813;52.016;8.714;2022-08-19T07:22:05;-16261.94;;;-139.71;65.94
3598;BME280;1813;52.016;8.714;2022-08-19T07:24:37;-16261.94;;;-139.71;65.47
3598;BME280;1813;52.016;8.714;2022-08-19T07:27:09;-16261.94;;;-139.71;63.16
3598;BME280;1813;52.016;8.714;2022-08-19T07:29:41;-16261.94;;;-139.71;62.72
3598;BME280;1813;52.016;8.714;2022-08-19T07:32:14;-16261.94;;;-139.71;61.57
3598;BME280;1813;52.016;8.714;2022-08-19T07:34:46;-16261.94;;;-139.71;61.21
3598;BME280;1813;52.016;8.714;2022-08-19T07:37:18;-16261.94;;;-139.71;60.38
3598;BME280;1813;52.016;8.714;2022-08-19T07:39:50;-16261.94;;;-139.71;59.38
3598;BME280;1813;52.016;8.714;2022-08-19T07:42:22;-16261.94;;;-139.71;59.62
3598;BME280;1813;52.016;8.714;2022-08-19T07:44:53;-16261.94;;;-139.71;59.77
3598;BME280;1813;52.016;8.714;2022-08-19T07:47:27;-16261.94;;;-139.71;59.13
3598;BME280;1813;52.016;8.714;2022-08-19T07:49:59;-16261.94;;;-139.71;58.57
3598;BME280;1813;52.016;8.714;2022-08-19T07:52:31;-16261.94;;;-139.71;58.12
3598;BME280;1813;52.016;8.714;2022-08-19T07:55:03;-16261.94;;;-139.71;57.42
3598;BME280;1813;52.016;8.714;2022-08-19T07:57:35;-16261.94;;;-139.71;57.12
3598;BME280;1813;52.016;8.714;2022-08-19T08:00:09;-16261.94;;;-139.71;55.45
3598;BME280;1813;52.016;8.714;2022-08-19T08:02:43;-16261.94;;;-139.71;55.48
3598;BME280;1813;52.016;8.714;2022-08-19T08:05:15;-16261.94;;;-139.71;55.31
3598;BME280;1813;52.016;8.714;2022-08-19T08:08:04;-16261.94;;;-139.71;54.90
3598;BME280;1813;52.016;8.714;2022-08-19T08:10:54;-16261.94;;;-139.71;54.35
3598;BME280;1813;52.016;8.714;2022-08-19T08:13:27;-16261.94;;;-139.71;53.91
3598;BME280;1813;52.016;8.714;2022-08-19T08:15:59;-16261.94;;;-139.71;52.67
3598;BME280;1813;52.016;8.714;2022-08-19T08:18:32;-16261.94;;;-139.71;53.19
3598;BME280;1813;52.016;8.714;2022-08-19T08:21:11;-16261.94;;;-139.71;52.77
3598;BME280;1813;52.016;8.714;2022-08-19T08:23:43;-16261.94;;;-139.71;51.86
3598;BME280;1813;52.016;8.714;2022-08-19T08:26:15;-16261.94;;;-139.71;52.68
3598;BME280;1813;52.016;8.714;2022-08-19T08:28:47;-16261.94;;;-139.71;52.01
3598;BME280;1813;52.016;8.714;2022-08-19T08:31:19;-16261.94;;;-139.71;51.55
3598;BME280;1813;52.016;8.714;2022-08-19T08:33:53;-16261.94;;;-139.71;51.79
3598;BME280;1813;52.016;8.714;2022-08-19T08:36:25;-16261.94;;;-139.71;51.33
3598;BME280;1813;52.016;8.714;2022-08-19T08:38:57;-16261.94;;;-139.71;52.64
3598;BME280;1813;52.016;8.714;2022-08-19T08:41:36;-16261.94;;;-139.71;52.59
3598;BME280;1813;52.016;8.714;2022-08-19T08:44:14;-16261.94;;;-139.71;52.27
3598;BME280;1813;52.016;8.714;2022-08-19T08:46:51;-16261.94;;;-139.71;51.88
3598;BME280;1813;52.016;8.714;2022-08-19T08:49:37;-16261.94;;;-139.71;50.40
3598;BME280;1813;52.016;8.714;2022-08-19T08:52:22;-16261.94;;;-139.71;50.14
3598;BME280;1813;52.016;8.714;2022-08-19T08:54:58;-16261.94;;;-139.71;49.75
3598;BME280;1813;52.016;8.714;2022-08-19T08:57:37;-16261.94;;;-139.71;49.11
3598;BME280;1813;52.016;8.714;2022-08-19T09:00:15;-16261.94;;;-139.71;46.91
3598;BME280;1813;52.016;8.714;2022-08-19T09:02:48;-16261.94;;;-139.71;45.95
3598;BME280;1813;52.016;8.714;2022-08-19T09:05:23;-16261.94;;;-139.71;46.41
3598;BME280;1813;52.016;8.714;2022-08-19T09:08:04;-16261.94;;;-139.71;47.90
3598;BME280;1813;52.016;8.714;2022-08-19T09:10:44;-16261.94;;;-139.71;46.56
3598;BME280;1813;52.016;8.714;2022-08-19T09:13:24;-16261.94;;;-139.71;46.05
3598;BME280;1813;52.016;8.714;2022-08-19T09:16:05;-16261.94;;;-139.71;44.34
3598;BME280;1813;52.016;8.714;2022-08-19T09:18:42;-16261.94;;;-139.71;43.80
3598;BME280;1813;52.016;8.714;2022-08-19T09:21:15;-16261.94;;;-139.71;42.96
3598;BME280;1813;52.016;8.714;2022-08-19T09:23:48;-16261.94;;;-139.71;42.00
3598;BME280;1813;52.016;8.714;2022-08-19T09:26:22;-16261.94;;;-139.71;42.48
3598;BME280;1813;52.016;8.714;2022-08-19T09:28:54;-16261.94;;;-139.71;43.90
3598;BME280;1813;52.016;8.714;2022-08-19T09:31:28;-16261.94;;;-139.71;41.94
3598;BME280;1813;52.016;8.714;2022-08-19T09:34:00;-16261.94;;;-139.71;41.24
3598;BME280;1813;52.016;8.714;2022-08-19T09:36:36;-16261.94;;;-139.71;41.26
3598;BME280;1813;52.016;8.714;2022-08-19T09:39:09;-16261.94;;;-139.71;40.28
3598;BME280;1813;52.016;8.714;2022-08-19T09:41:41;-16261.94;;;-139.71;41.38
3598;BME280;1813;52.016;8.714;2022-08-19T09:44:13;-16261.94;;;-139.71;40.19
3598;BME280;1813;52.016;8.714;2022-08-19T09:46:45;-16261.94;;;-139.71;39.55
3598;BME280;1813;52.016;8.714;2022-08-19T09:49:20;-16261.94;;;-139.71;38.86
3598;BME280;1813;52.016;8.714;2022-08-19T09:51:54;-16261.94;;;-139.71;39.21
3598;BME280;1813;52.016;8.714;2022-08-19T09:54:26;-16261.94;;;-139.71;38.43
3598;BME280;1813;52.016;8.714;2022-08-19T09:56:59;-16261.94;;;-139.71;36.92
3598;BME280;1813;52.016;8.714;2022-08-19T09:59:31;-16261.94;;;-139.71;36.43
3598;BME280;1813;52.016;8.714;2022-08-19T10:02:03;-16261.94;;;-139.71;36.84
3598;BME280;1813;52.016;8.714;2022-08-19T10:04:35;-16261.94;;;-139.71;37.03
3598;BME280;1813;52.016;8.714;2022-08-19T10:07:26;-16261.94;;;-139.71;36.25
3598;BME280;1813;52.016;8.714;2022-08-19T10:10:00;-16261.94;;;-139.71;37.14
3598;BME280;1813;52.016;8.714;2022-08-19T10:12:32;-16261.94;;;-139.71;37.42
3598;BME280;1813;52.016;8.714;2022-08-19T10:15:05;-16261.94;;;-139.71;36.17
3598;BME280;1813;52.016;8.714;2022-08-19T10:17:37;-16261.94;;;-139.71;36.00
3598;BME280;1813;52.016;8.714;2022-08-19T10:20:10;-16261.94;;;-139.71;35.40
3598;BME280;1813;52.016;8.714;2022-08-19T10:22:43;-16261.94;;;-139.71;36.33
3598;BME280;1813;52.016;8.714;2022-08-19T10:25:15;-16261.94;;;-139.71;36.98
3598;BME280;1813;52.016;8.714;2022-08-19T10:27:47;-16261.94;;;-139.71;37.07
3598;BME280;1813;52.016;8.714;2022-08-19T10:30:21;-16261.94;;;-139.71;36.98
3598;BME280;1813;52.016;8.714;2022-08-19T10:32:53;-16261.94;;;-139.71;37.15
3598;BME280;1813;52.016;8.714;2022-08-19T10:35:24;-16261.94;;;-139.71;35.22
3598;BME280;1813;52.016;8.714;2022-08-19T10:38:01;-16261.94;;;-139.71;35.75
3598;BME280;1813;52.016;8.714;2022-08-19T10:40:33;-16261.94;;;-139.71;35.47
3598;BME280;1813;52.016;8.714;2022-08-19T10:43:05;-16261.94;;;-139.71;35.87
3598;BME280;1813;52.016;8.714;2022-08-19T10:45:37;-16261.94;;;-139.71;36.02
3598;BME280;1813;52.016;8.714;2022-08-19T10:48:09;-16261.94;;;-139.71;35.30
3598;BME280;1813;52.016;8.714;2022-08-19T10:50:40;-16261.94;;;-139.71;35.55
3598;BME280;1813;52.016;8.714;2022-08-19T10:53:31;-16261.94;;;-139.71;34.48
3598;BME280;1813;52.016;8.714;2022-08-19T10:56:03;-16261.94;;;-139.71;34.06
3598;BME280;1813;52.016;8.714;2022-08-19T10:58:53;-16261.94;;;-139.71;33.89
3598;BME280;1813;52.016;8.714;2022-08-19T11:01:25;-16261.94;;;-139.71;33.75
3598;BME280;1813;52.016;8.714;2022-08-19T11:03:57;-16261.94;;;-139.71;33.90
3598;BME280;1813;52.016;8.714;2022-08-19T11:06:30;-16261.94;;;-139.71;34.08
3598;BME280;1813;52.016;8.714;2022-08-19T11:09:04;-16261.94;;;-139.71;33.67
3598;BME280;1813;52.016;8.714;2022-08-19T11:11:36;-16261.94;;;-139.71;33.95
3598;BME280;1813;52.016;8.714;2022-08-19T11:14:13;-16261.94;;;-139.71;34.11
3598;BME280;1813;52.016;8.714;2022-08-19T11:16:46;-16261.94;;;-139.71;33.98
3598;BME280;1813;52.016;8.714;2022-08-19T11:19:18;-16261.94;;;-139.71;34.95
3598;BME280;1813;52.016;8.714;2022-08-19T11:21:52;-16261.94;;;-139.71;34.47
3598;BME280;1813;52.016;8.714;2022-08-19T11:24:26;-16261.94;;;-139.71;34.43
3598;BME280;1813;52.016;8.714;2022-08-19T11:27:01;-16261.94;;;-139.71;34.38
3598;BME280;1813;52.016;8.714;2022-08-19T11:29:36;-16261.94;;;-139.71;33.01
3598;BME280;1813;52.016;8.714;2022-08-19T11:32:10;-16261.94;;;-139.71;33.07
3598;BME280;1813;52.016;8.714;2022-08-19T11:34:43;-16261.94;;;-139.71;32.66
3598;BME280;1813;52.016;8.714;2022-08-19T11:37:15;-16261.94;;;-139.71;33.03
3598;BME280;1813;52.016;8.714;2022-08-19T11:39:48;-16261.94;;;-139.71;33.01
3598;BME280;1813;52.016;8.714;2022-08-19T11:42:19;-16261.94;;;-139.71;32.30
3598;BME280;1813;52.016;8.714;2022-08-19T11:45:09;-16261.94;;;-139.71;30.73
3598;BME280;1813;52.016;8.714;2022-08-19T11:47:41;-16261.94;;;-139.71;30.84
3598;BME280;1813;52.016;8.714;2022-08-19T11:50:14;-16261.94;;;-139.71;32.60
3598;BME280;1813;52.016;8.714;2022-08-19T11:52:46;-16261.94;;;-139.71;33.27
3598;BME280;1813;52.016;8.714;2022-08-19T11:55:21;-16261.94;;;-139.71;32.83
3598;BME280;1813;52.016;8.714;2022-08-19T11:57:53;-16261.94;;;-139.71;31.77
3598;BME280;1813;52.016;8.714;2022-08-19T12:00:24;-16261.94;;;-139.71;32.43
3598;BME280;1813;52.016;8.714;2022-08-19T12:02:56;-16261.94;;;-139.71;32.19
3598;BME280;1813;52.016;8.714;2022-08-19T12:05:28;-16261.94;;;-139.71;32.49
3598;BME280;1813;52.016;8.714;2022-08-19T12:08:00;-16261.94;;;-139.71;32.21
3598;BME280;1813;52.016;8.714;2022-08-19T12:10:34;-16261.94;;;-139.71;31.04
3598;BME280;1813;52.016;8.714;2022-08-19T12:13:06;-16261.94;;;-139.71;31.92
3598;BME280;1813;52.016;8.714;2022-08-19T12:15:39;-16261.94;;;-139.71;31.22
3598;BME280;1813;52.016;8.714;2022-08-19T12:18:11;-16261.94;;;-139.71;30.39
3598;BME280;1813;52.016;8.714;2022-08-19T12:20:44;-16261.94;;;-139.71;31.60
3598;BME280;1813;52.016;8.714;2022-08-19T12:23:18;-16261.94;;;-139.71;31.79
3598;BME280;1813;52.016;8.714;2022-08-19T12:25:51;-16261.94;;;-139.71;31.65
3598;BME280;1813;52.016;8.714;2022-08-19T12:28:24;-16261.94;;;-139.71;31.72
3598;BME280;1813;52.016;8.714;2022-08-19T12:30:56;-16261.94;;;-139.71;32.12
3598;BME280;1813;52.016;8.714;2022-08-19T12:33:28;-16261.94;;;-139.71;32.64
3598;BME280;1813;52.016;8.714;2022-08-19T12:36:04;-16261.94;;;-139.71;31.81
3598;BME280;1813;52.016;8.714;2022-08-19T12:38:38;-16261.94;;;-139.71;31.15
3598;BME280;1813;52.016;8.714;2022-08-19T12:41:13;-16261.94;;;-139.71;30.89
3598;BME280;1813;52.016;8.714;2022-08-19T12:43:45;-16261.94;;;-139.71;31.86
3598;BME280;1813;52.016;8.714;2022-08-19T12:46:19;-16261.94;;;-139.71;31.43
3598;BME280;1813;52.016;8.714;2022-08-19T12:48:51;-16261.94;;;-139.71;31.10
3598;BME280;1813;52.016;8.714;2022-08-19T12:51:24;-16261.94;;;-139.71;31.49
3598;BME280;1813;52.016;8.714;2022-08-19T12:53:57;-16261.94;;;-139.71;31.04
3598;BME280;1813;52.016;8.714;2022-08-19T12:56:30;-16261.94;;;-139.71;30.21
3598;BME280;1813;52.016;8.714;2022-08-19T12:59:04;-16261.94;;;-139.71;30.00
3598;BME280;1813;52.016;8.714;2022-08-19T13:01:37;-16261.94;;;-139.71;30.47
3598;BME280;1813;52.016;8.714;2022-08-19T13:04:09;-16261.94;;;-139.71;30.39
3598;BME280;1813;52.016;8.714;2022-08-19T13:06:40;-16261.94;;;-139.71;30.43
3598;BME280;1813;52.016;8.714;2022-08-19T13:09:13;-16261.94;;;-139.71;30.74
3598;BME280;1813;52.016;8.714;2022-08-19T13:11:46;-16261.94;;;-139.71;30.55
3598;BME280;1813;52.016;8.714;2022-08-19T13:14:17;-16261.94;;;-139.71;31.32
3598;BME280;1813;52.016;8.714;2022-08-19T13:16:49;-16261.94;;;-139.71;30.84
3598;BME280;1813;52.016;8.714;2022-08-19T13:19:21;-16261.94;;;-139.71;31.15
3598;BME280;1813;52.016;8.714;2022-08-19T13:21:53;-16261.94;;;-139.71;30.14
3598;BME280;1813;52.016;8.714;2022-08-19T13:24:26;-16261.94;;;-139.71;29.94